EDT,Max TemperatureF,Mean TemperatureF,Min TemperatureF,Max Dew PointF,MeanDew PointF,Min DewpointF,Max Humidity, Mean Humidity, Min Humidity, Max Sea Level PressureIn, Mean Sea Level PressureIn, Min Sea Level PressureIn, Max VisibilityMiles, Mean VisibilityMiles, Min VisibilityMiles, Max Wind SpeedMPH, Mean Wind SpeedMPH, Max Gust SpeedMPH,PrecipitationIn, CloudCover, Events, WindDirDegrees
2013-10-1,75,64,52,55,51,48,89,64,38,29.96,29.91,29.86,10,10,9,12,7,16,0.00,1,,272
2013-10-2,82,72,62,57,55,53,73,58,42,29.95,29.88,29.83,10,10,9,20,11,28,0.00,1,,273
2013-10-3,79,70,61,55,49,42,72,50,28,30.08,30.03,29.96,10,10,9,14,7,17,0.00,3,,276
2013-10-4,67,63,59,56,51,46,84,68,52,30.09,30.06,30.04,10,10,10,12,3,14,0.03,7,Rain,15
2013-10-5,68,64,59,57,55,52,84,71,58,30.13,30.10,30.06,10,10,10,10,4,14,T,7,,85
2013-10-6,62,59,56,58,55,52,93,87,80,30.23,30.18,30.13,10,7,2,16,11,21,0.31,8,Rain,83
2013-10-7,78,69,60,70,63,53,100,85,69,30.12,29.96,29.83,10,7,0,33,12,43,0.11,7,Rain,183
2013-10-8,68,60,52,52,41,36,67,50,32,30.38,30.17,29.93,10,10,10,18,11,23,0.00,3,,325
2013-10-9,61,55,49,47,43,40,77,62,47,30.47,30.42,30.37,10,10,10,18,9,22,0.00,4,,46
2013-10-10,61,55,48,52,49,44,86,78,69,30.36,30.28,30.19,10,10,10,13,8,17,0.00,6,,27
2013-10-11,66,59,52,54,51,46,93,78,62,30.17,30.14,30.11,10,9,2,14,7,16,0.00,6,,18
2013-10-12,61,57,53,56,52,47,93,83,72,30.39,30.30,30.16,10,8,1,20,12,25,T,7,Rain,50
2013-10-13,61,55,49,48,45,42,86,71,55,30.45,30.41,30.38,10,10,10,15,10,17,0.00,3,,49
2013-10-14,61,53,44,49,44,40,89,71,53,30.41,30.33,30.27,10,10,10,14,6,20,0.00,3,,189
2013-10-15,64,58,52,53,50,47,86,75,64,30.27,30.24,30.19,10,10,10,13,6,15,0.00,6,,112
2013-10-16,62,57,51,54,53,49,96,87,78,30.17,30.06,29.92,10,10,3,13,5,16,0.00,7,,62
2013-10-17,73,64,54,59,56,52,100,79,57,29.92,29.83,29.74,10,7,2,15,9,21,0.03,5,,222
2013-10-18,70,63,56,61,50,37,97,67,37,29.91,29.73,29.62,10,10,7,23,12,31,0.02,4,Rain,246
2013-10-19,67,59,50,46,41,37,66,50,34,29.98,29.90,29.77,10,10,10,16,9,21,0.00,5,,207
2013-10-20,64,57,49,51,38,28,89,59,29,30.02,29.84,29.70,10,10,10,23,12,29,T,2,,268
2013-10-21,68,57,45,50,39,33,77,55,32,30.12,30.06,30.01,10,10,10,16,8,21,0.00,1,,240
2013-10-22,71,60,48,50,44,35,89,65,40,30.00,29.82,29.71,10,10,9,20,10,30,T,3,Rain,236
2013-10-23,53,50,46,33,30,27,58,48,38,29.81,29.70,29.60,10,10,10,18,6,23,0.00,6,,293
2013-10-24,56,50,43,32,27,20,62,45,28,29.89,29.78,29.65,10,10,10,23,14,30,0.00,2,,269
2013-10-25,52,46,39,32,27,23,67,50,33,30.16,30.03,29.91,10,10,10,17,10,25,0.00,2,,282
2013-10-26,57,47,37,35,29,22,76,50,24,30.16,30.04,29.88,10,10,10,29,13,37,0.00,4,,232
2013-10-27,57,51,44,39,32,25,83,59,35,30.07,29.90,29.83,10,10,10,23,13,35,0.03,4,Rain,267
2013-10-28,60,50,39,31,28,20,70,50,29,30.36,30.17,30.08,10,10,10,24,12,33,0.00,2,,279
2013-10-29,57,46,35,34,27,21,79,63,46,30.45,30.40,30.37,10,10,10,12,7,15,0.00,2,,25
2013-10-30,53,46,39,41,37,31,89,72,54,30.36,30.27,30.21,10,9,5,12,4,14,0.05,5,Rain,230
2013-10-31,63,52,40,58,49,39,96,84,72,30.25,30.08,29.81,10,8,3,23,8,30,0.03,6,Rain,197